Time;durP1;ratioP1;P1;durP2;ratioP2;P2;SDS_P1;SDS_P2;PMS_P1;PMS_P2;Temp;Humidity;BMP_temperature;BMP_pressure;BME280_temperature;BME280_humidity;BME280_pressure;Samples;Min_cycle;Max_cycle;Signal;HPM_P1;HPM_P2
2023/04/28 00:00:50;;;;;;;17.47;8.50;;;6.20;99.90;;;;;;4975311;28;20057;-87
2023/04/28 00:03:16;;;;;;;17.10;8.60;;;6.20;99.90;;;;;;4975205;28;20035;-87
2023/04/28 00:05:42;;;;;;;16.87;8.13;;;6.10;99.90;;;;;;4956947;28;20047;-87
2023/04/28 00:08:08;;;;;;;15.87;8.33;;;6.20;99.90;;;;;;4957399;28;20133;-87
2023/04/28 00:10:36;;;;;;;16.63;8.30;;;6.10;99.90;;;;;;4960659;28;20046;-87
2023/04/28 00:13:02;;;;;;;18.13;8.17;;;6.80;99.90;;;;;;4965280;28;20459;-87
2023/04/28 00:15:28;;;;;;;17.30;7.67;;;7.00;99.90;;;;;;4972189;28;20077;-86
2023/04/28 00:17:54;;;;;;;16.67;8.37;;;6.10;99.90;;;;;;4983280;28;20098;-87
2023/04/28 00:20:20;;;;;;;18.23;8.95;;;7.10;99.90;;;;;;4983427;28;20047;-87
2023/04/28 00:22:45;;;;;;;17.77;8.73;;;6.10;99.90;;;;;;4958289;28;20046;-87
2023/04/28 00:25:11;;;;;;;16.43;8.13;;;6.10;99.90;;;;;;4956939;28;20047;-87
2023/04/28 00:27:39;;;;;;;17.77;8.30;;;6.10;99.90;;;;;;4974989;28;20399;-87
2023/04/28 00:30:05;;;;;;;15.13;8.38;;;6.00;99.90;;;;;;4975017;28;20030;-86
2023/04/28 00:32:31;;;;;;;17.85;8.65;;;6.00;99.90;;;;;;4956327;28;20829;-87
2023/04/28 00:34:57;;;;;;;16.52;8.38;;;6.10;99.90;;;;;;4973353;28;20093;-87
2023/04/28 00:37:22;;;;;;;17.27;8.45;;;6.80;99.90;;;;;;4957454;28;20057;-87
2023/04/28 00:39:53;;;;;;;19.77;9.23;;;6.00;99.90;;;;;;4964061;28;20047;-87
2023/04/28 00:42:18;;;;;;;24.33;11.17;;;6.00;99.90;;;;;;4960134;28;20046;-87
2023/04/28 00:44:44;;;;;;;16.43;8.77;;;6.00;99.90;;;;;;4957360;28;20057;-87
2023/04/28 00:47:10;;;;;;;17.30;8.70;;;6.00;99.90;;;;;;4973530;28;20047;-87
2023/04/28 00:49:36;;;;;;;19.83;9.07;;;6.00;99.90;;;;;;4957430;28;20154;-87
2023/04/28 00:52:05;;;;;;;15.97;8.70;;;6.80;99.90;;;;;;4957081;28;20089;-87
2023/04/28 00:54:33;;;;;;;18.93;9.03;;;5.90;99.90;;;;;;4956622;28;20517;-87
2023/04/28 00:57:02;;;;;;;17.88;9.35;;;5.90;99.90;;;;;;4956734;28;20565;-87
2023/04/28 00:59:29;;;;;;;16.17;8.98;;;5.90;99.90;;;;;;4957144;28;20442;-87
2023/04/28 01:01:55;;;;;;;17.37;8.60;;;5.90;99.90;;;;;;4956319;28;20177;-87
2023/04/28 01:04:22;;;;;;;17.20;8.68;;;5.90;99.90;;;;;;4974318;28;20403;-87
2023/04/28 01:06:50;;;;;;;18.97;8.73;;;6.00;99.90;;;;;;4974475;28;20047;-87
2023/04/28 01:09:15;;;;;;;18.47;8.70;;;5.80;99.90;;;;;;4955730;28;20411;-87
2023/04/28 01:11:41;;;;;;;19.27;9.15;;;6.80;99.90;;;;;;4974786;28;20083;-87
2023/04/28 01:14:06;;;;;;;18.90;9.30;;;5.80;99.90;;;;;;4974135;28;20049;-87
2023/04/28 01:16:33;;;;;;;18.87;8.80;;;5.80;99.90;;;;;;4973251;28;20047;-87
2023/04/28 01:18:59;;;;;;;17.33;8.67;;;5.80;99.90;;;;;;4976560;28;20102;-87
2023/04/28 01:21:31;;;;;;;19.07;8.87;;;5.80;99.90;;;;;;4960279;28;20047;-87
2023/04/28 01:24:04;;;;;;;18.13;8.50;;;5.80;99.90;;;;;;4961483;28;20074;-87
2023/04/28 01:26:30;;;;;;;21.20;9.75;;;5.80;99.90;;;;;;4976518;28;20051;-86
2023/04/28 01:28:55;;;;;;;20.03;10.13;;;6.90;99.90;;;;;;4976534;28;20038;-87
2023/04/28 01:31:21;;;;;;;17.17;9.40;;;5.80;99.90;;;;;;4960422;28;20495;-87
2023/04/28 01:33:47;;;;;;;17.27;9.02;;;5.80;99.90;;;;;;4977592;28;20043;-87
2023/04/28 01:36:12;;;;;;;17.83;9.53;;;5.80;99.90;;;;;;4959889;28;20090;-87
2023/04/28 01:38:38;;;;;;;19.30;9.63;;;6.90;99.90;;;;;;4977625;28;20487;-87
2023/04/28 01:41:03;;;;;;;20.13;9.83;;;7.00;99.90;;;;;;4960240;28;20042;-87
2023/04/28 01:43:29;;;;;;;18.27;9.90;;;5.90;99.90;;;;;;4979352;28;20091;-87
2023/04/28 01:45:55;;;;;;;18.00;9.40;;;5.90;99.90;;;;;;4985870;28;20519;-86
2023/04/28 01:48:20;;;;;;;18.00;9.65;;;5.90;99.90;;;;;;4978113;28;20035;-87
2023/04/28 01:50:46;;;;;;;18.77;9.13;;;5.90;99.90;;;;;;4980317;28;20380;-87
2023/04/28 01:53:13;;;;;;;20.03;9.67;;;5.90;99.90;;;;;;4978341;28;20038;-87
2023/04/28 01:55:38;;;;;;;21.42;10.55;;;5.90;99.90;;;;;;4977935;28;20117;-86
2023/04/28 01:58:07;;;;;;;21.60;9.87;;;5.90;99.90;;;;;;4976635;28;20402;-87
2023/04/28 02:00:32;;;;;;;16.93;8.93;;;5.90;99.90;;;;;;4977469;28;20505;-86
2023/04/28 02:02:58;;;;;;;18.67;9.17;;;5.90;99.90;;;;;;4958186;28;20114;-88
2023/04/28 02:05:24;;;;;;;18.13;9.97;;;5.90;99.90;;;;;;4959085;28;20070;-87
2023/04/28 02:07:50;;;;;;;20.23;9.70;;;5.90;99.90;;;;;;4958893;28;20152;-87
2023/04/28 02:10:16;;;;;;;18.00;9.07;;;5.90;99.90;;;;;;4955819;29;20083;-87
2023/04/28 02:12:41;;;;;;;19.40;9.57;;;5.90;99.90;;;;;;4943702;29;20395;-87
2023/04/28 02:15:08;;;;;;;21.27;9.77;;;5.90;99.90;;;;;;4976743;28;20097;-86
2023/04/28 02:17:34;;;;;;;20.80;9.33;;;6.00;99.90;;;;;;4959766;28;20055;-87
2023/04/28 02:20:00;;;;;;;16.97;9.07;;;5.90;99.90;;;;;;4958750;28;20039;-86
2023/04/28 02:22:25;;;;;;;18.03;9.37;;;6.90;99.90;;;;;;4959325;28;20495;-87
2023/04/28 02:24:51;;;;;;;17.10;9.10;;;5.90;99.90;;;;;;4958811;28;20042;-87
2023/04/28 02:27:17;;;;;;;18.13;9.50;;;5.90;99.90;;;;;;4958909;28;20057;-87
2023/04/28 02:29:43;;;;;;;22.77;9.70;;;5.90;99.90;;;;;;4975725;28;20042;-87
2023/04/28 02:32:08;;;;;;;19.10;9.50;;;5.90;99.90;;;;;;4958150;28;20085;-87
2023/04/28 02:34:34;;;;;;;19.92;9.70;;;5.90;99.90;;;;;;4976608;28;20398;-87
2023/04/28 02:36:59;;;;;;;19.20;9.83;;;5.90;99.90;;;;;;4958746;28;20082;-87
2023/04/28 02:39:26;;;;;;;18.57;9.63;;;5.90;99.90;;;;;;4975665;28;20149;-87
2023/04/28 02:41:52;;;;;;;18.38;9.77;;;5.90;99.90;;;;;;4976689;28;20050;-87
2023/04/28 02:44:18;;;;;;;18.27;10.07;;;5.90;99.90;;;;;;4976405;28;20126;-87
2023/04/28 02:46:44;;;;;;;19.57;9.97;;;5.90;99.90;;;;;;4958262;28;20126;-87
2023/04/28 02:49:10;;;;;;;20.40;10.10;;;5.80;99.90;;;;;;4958444;28;20070;-87
2023/04/28 02:51:35;;;;;;;20.23;9.73;;;5.80;99.90;;;;;;4976605;28;20050;-87
2023/04/28 02:54:01;;;;;;;20.33;9.43;;;5.80;99.90;;;;;;4957964;28;20038;-87
2023/04/28 02:56:28;;;;;;;20.70;9.63;;;7.10;99.90;;;;;;4959132;28;20507;-87
2023/04/28 02:58:54;;;;;;;18.00;9.33;;;5.70;99.90;;;;;;4959459;28;20089;-87
2023/04/28 03:01:20;;;;;;;19.80;9.80;;;5.70;99.90;;;;;;4958317;28;20047;-87
2023/04/28 03:03:45;;;;;;;22.13;10.07;;;5.70;99.90;;;;;;4975886;28;20057;-87
2023/04/28 03:06:11;;;;;;;18.10;9.37;;;5.60;99.90;;;;;;4958347;28;20105;-87
2023/04/28 03:08:37;;;;;;;20.80;10.17;;;5.60;99.90;;;;;;4975461;28;20073;-87
2023/04/28 03:11:02;;;;;;;18.63;9.67;;;5.70;99.90;;;;;;4977076;28;20043;-87
2023/04/28 03:13:28;;;;;;;18.40;9.10;;;5.60;99.90;;;;;;4993958;28;20049;-86
2023/04/28 03:15:55;;;;;;;17.07;9.47;;;5.60;99.90;;;;;;4989345;28;20127;-87
2023/04/28 03:18:22;;;;;;;20.27;9.97;;;5.50;99.90;;;;;;4961341;28;20047;-87
2023/04/28 03:20:48;;;;;;;19.87;9.83;;;5.50;99.90;;;;;;4960630;28;20051;-87
2023/04/28 03:23:14;;;;;;;17.27;9.03;;;5.50;99.90;;;;;;4961847;28;20149;-87
2023/04/28 03:25:39;;;;;;;17.83;9.27;;;5.50;99.90;;;;;;4977719;28;20396;-87
2023/04/28 03:28:06;;;;;;;20.67;9.80;;;5.50;99.90;;;;;;4958409;28;20050;-87
2023/04/28 03:30:32;;;;;;;20.20;9.57;;;5.40;99.90;;;;;;4958044;28;20043;-87
2023/04/28 03:32:58;;;;;;;18.80;9.30;;;5.60;99.90;;;;;;4975102;28;20117;-87
2023/04/28 03:35:23;;;;;;;18.80;9.13;;;5.40;99.90;;;;;;4974942;28;20125;-87
2023/04/28 03:37:50;;;;;;;18.30;9.20;;;5.40;99.90;;;;;;4974359;28;20113;-87
2023/04/28 03:40:19;;;;;;;17.70;8.90;;;5.40;99.90;;;;;;4974425;28;20049;-87
2023/04/28 03:42:44;;;;;;;19.77;9.17;;;5.40;99.90;;;;;;4957597;28;20438;-87
2023/04/28 03:45:10;;;;;;;18.38;9.73;;;5.40;99.90;;;;;;4967890;28;20039;-87
2023/04/28 03:47:36;;;;;;;17.80;9.03;;;6.30;99.90;;;;;;4976790;28;20503;-87
2023/04/28 03:50:02;;;;;;;17.10;8.63;;;5.40;99.90;;;;;;4974815;28;20042;-87
2023/04/28 03:52:40;;;;;;;18.13;8.83;;;5.40;99.90;;;;;;4957885;28;20137;-87
2023/04/28 03:55:06;;;;;;;17.43;8.53;;;6.40;99.90;;;;;;4957868;28;20055;-87
2023/04/28 03:57:32;;;;;;;19.63;9.10;;;5.40;99.90;;;;;;4957544;28;20557;-87
2023/04/28 03:59:58;;;;;;;18.40;8.80;;;5.60;99.90;;;;;;4974961;28;20525;-87
2023/04/28 04:02:23;;;;;;;19.53;9.00;;;5.40;99.90;;;;;;4946578;28;20511;-87
2023/04/28 04:04:49;;;;;;;17.73;8.77;;;6.50;99.90;;;;;;4972845;28;20126;-87
2023/04/28 04:07:14;;;;;;;17.77;9.27;;;6.20;99.90;;;;;;4956522;28;20057;-87
2023/04/28 04:09:40;;;;;;;18.03;8.43;;;5.50;99.90;;;;;;4974675;28;20101;-87
2023/04/28 04:12:06;;;;;;;18.47;8.80;;;5.50;99.90;;;;;;4957119;28;20051;-86
2023/04/28 04:14:32;;;;;;;20.60;8.90;;;5.50;99.90;;;;;;4974915;28;20053;-87
2023/04/28 04:17:00;;;;;;;18.47;8.80;;;6.60;99.90;;;;;;4974436;28;20114;-87
2023/04/28 04:19:26;;;;;;;18.07;8.40;;;5.60;99.90;;;;;;4956517;28;20038;-87
2023/04/28 04:21:52;;;;;;;18.70;9.20;;;5.60;99.90;;;;;;4957448;28;20446;-87
2023/04/28 04:24:17;;;;;;;16.77;8.60;;;5.60;99.90;;;;;;4973798;28;20034;-86
2023/04/28 04:26:43;;;;;;;17.73;8.53;;;5.60;99.90;;;;;;4957093;28;20121;-87
2023/04/28 04:29:08;;;;;;;21.73;9.27;;;5.60;99.90;;;;;;4974886;28;20065;-87
2023/04/28 04:31:34;;;;;;;17.57;8.87;;;5.60;99.90;;;;;;4957517;28;20059;-87
2023/04/28 04:34:00;;;;;;;19.40;9.17;;;5.60;99.90;;;;;;4958366;28;20047;-87
2023/04/28 04:36:55;;;;;;;17.70;8.63;;;6.40;99.90;;;;;;4957933;28;20487;-87
2023/04/28 04:39:30;;;;;;;19.53;8.83;;;5.50;99.90;;;;;;4905365;28;20142;-87
2023/04/28 04:41:56;;;;;;;18.00;8.93;;;5.50;99.90;;;;;;4957618;28;20443;-87
2023/04/28 04:44:31;;;;;;;18.93;8.67;;;6.10;99.90;;;;;;4975120;28;20133;-86
2023/04/28 04:46:57;;;;;;;17.83;8.40;;;6.20;99.90;;;;;;4960634;28;20046;-87
2023/04/28 04:49:37;;;;;;;18.73;9.03;;;7.40;99.90;;;;;;4977539;28;20049;-87
2023/04/28 04:52:07;;;;;;;18.93;9.13;;;5.80;99.90;;;;;;4975650;28;20061;-87
2023/04/28 04:54:32;;;;;;;19.30;9.13;;;6.00;99.90;;;;;;4979464;28;20047;-87
2023/04/28 04:56:58;;;;;;;16.97;8.00;;;5.90;99.90;;;;;;4977731;28;20432;-87
2023/04/28 04:59:24;;;;;;;16.53;8.13;;;7.20;99.90;;;;;;4957952;28;20106;-87
2023/04/28 05:02:02;;;;;;;17.83;8.63;;;6.30;99.90;;;;;;4974862;28;20054;-87
2023/04/28 05:04:27;;;;;;;17.57;8.83;;;5.90;99.90;;;;;;4974605;28;20384;-87
2023/04/28 05:06:53;;;;;;;16.67;8.40;;;5.80;99.90;;;;;;4963214;23;20061;-87
2023/04/28 05:09:22;;;;;;;17.43;8.37;;;6.10;99.90;;;;;;4974432;28;20053;-87
2023/04/28 05:11:48;;;;;;;17.92;8.00;;;6.10;99.90;;;;;;4956681;28;20046;-86
2023/04/28 05:14:13;;;;;;;17.27;8.33;;;6.10;99.90;;;;;;4956293;28;20061;-87
2023/04/28 05:16:40;;;;;;;17.20;8.20;;;6.20;99.90;;;;;;4977677;28;20043;-88
2023/04/28 05:19:06;;;;;;;17.03;8.50;;;6.20;99.90;;;;;;4980018;28;20050;-87
2023/04/28 05:21:32;;;;;;;16.07;8.47;;;6.20;99.90;;;;;;4974067;28;20439;-87
2023/04/28 05:23:57;;;;;;;16.27;7.60;;;6.30;99.90;;;;;;4973966;28;20043;-86
2023/04/28 05:26:26;;;;;;;19.33;8.17;;;6.40;99.90;;;;;;4972546;28;20081;-87
2023/04/28 05:28:52;;;;;;;16.75;7.72;;;6.30;99.90;;;;;;4955793;28;20145;-87
2023/04/28 05:31:17;;;;;;;17.33;8.23;;;7.20;99.90;;;;;;4973796;28;20122;-87
2023/04/28 05:33:43;;;;;;;17.57;8.47;;;6.40;99.90;;;;;;4972832;28;20038;-87
2023/04/28 05:36:08;;;;;;;18.52;8.25;;;6.50;99.90;;;;;;4973047;28;20054;-87
2023/04/28 05:38:34;;;;;;;17.40;8.57;;;6.50;99.90;;;;;;4974234;28;20085;-87
2023/04/28 05:41:01;;;;;;;16.45;7.97;;;6.50;99.90;;;;;;4956335;28;20050;-87
2023/04/28 05:43:27;;;;;;;17.48;8.73;;;6.50;99.90;;;;;;4955664;28;20035;-87
2023/04/28 05:45:53;;;;;;;16.20;8.45;;;6.60;99.90;;;;;;4973937;28;20039;-87
2023/04/28 05:48:18;;;;;;;16.13;8.17;;;6.60;99.90;;;;;;4956263;28;20097;-87
2023/04/28 05:50:44;;;;;;;17.02;8.00;;;7.60;99.90;;;;;;4956093;28;20077;-87
2023/04/28 05:53:12;;;;;;;19.55;8.80;;;6.60;99.90;;;;;;4972663;28;20046;-87
2023/04/28 05:55:38;;;;;;;17.80;8.20;;;6.60;99.90;;;;;;4973919;28;20055;-89
2023/04/28 05:58:04;;;;;;;17.60;8.00;;;6.60;99.90;;;;;;4955759;28;20416;-82
2023/04/28 06:00:30;;;;;;;15.07;8.07;;;6.60;99.90;;;;;;4972934;28;20406;-81
2023/04/28 06:02:56;;;;;;;19.40;8.40;;;7.30;99.90;;;;;;4971446;28;20051;-82
2023/04/28 06:05:46;;;;;;;16.35;8.25;;;7.50;99.90;;;;;;4958829;28;20062;-81
2023/04/28 06:08:30;;;;;;;14.95;8.07;;;5.80;99.90;;;;;;4958817;28;20094;-82
2023/04/28 06:10:55;;;;;;;14.85;7.72;;;6.70;99.90;;;;;;4976246;28;20039;-81
2023/04/28 06:13:21;;;;;;;15.33;7.73;;;6.50;99.90;;;;;;4960035;28;20513;-80
2023/04/28 06:15:47;;;;;;;16.10;7.57;;;8.10;99.90;;;;;;4983852;28;20043;-80
2023/04/28 06:18:14;;;;;;;17.63;9.03;;;7.50;99.90;;;;;;4973315;28;20051;-81
2023/04/28 06:20:40;;;;;;;16.15;7.95;;;6.70;99.90;;;;;;4978204;28;20102;-82
2023/04/28 06:23:07;;;;;;;15.38;7.90;;;6.60;99.90;;;;;;4977572;28;20039;-81
2023/04/28 06:25:36;;;;;;;15.23;8.00;;;6.80;99.90;;;;;;4960313;28;20047;-81
2023/04/28 06:28:02;;;;;;;15.07;7.22;;;7.50;99.90;;;;;;5001818;23;20493;-81
2023/04/28 06:30:28;;;;;;;15.38;7.18;;;6.90;99.90;;;;;;5017556;28;20068;-80
2023/04/28 06:32:56;;;;;;;17.15;7.90;;;7.10;99.90;;;;;;5034772;28;20563;-82
2023/04/28 06:35:28;;;;;;;15.83;7.17;;;7.80;99.90;;;;;;5035209;28;20132;-83
2023/04/28 06:37:54;;;;;;;14.83;6.87;;;7.10;99.90;;;;;;5016987;28;20136;-82
2023/04/28 06:40:20;;;;;;;15.67;7.43;;;7.10;99.90;;;;;;5035340;28;20116;-81
2023/04/28 06:42:47;;;;;;;17.33;8.03;;;7.20;99.90;;;;;;5017307;28;20081;-81
2023/04/28 06:45:12;;;;;;;14.57;7.07;;;7.70;99.90;;;;;;5020297;28;20126;-81
2023/04/28 06:47:39;;;;;;;17.83;7.68;;;7.30;99.90;;;;;;5054757;28;20504;-81
2023/04/28 06:50:05;;;;;;;15.25;7.20;;;8.20;99.90;;;;;;5036303;28;20059;-81
2023/04/28 06:52:31;;;;;;;14.73;7.03;;;7.40;99.90;;;;;;5054457;28;20052;-82
2023/04/28 06:54:59;;;;;;;13.38;7.10;;;7.40;99.90;;;;;;5036701;28;20048;-82
2023/04/28 06:57:25;;;;;;;15.00;7.45;;;7.50;99.90;;;;;;5054611;28;20048;-81
2023/04/28 06:59:51;;;;;;;14.13;7.17;;;7.50;99.90;;;;;;5053945;28;20090;-81
2023/04/28 07:02:21;;;;;;;14.10;7.10;;;7.50;99.90;;;;;;5036370;28;20048;-81
2023/04/28 07:04:56;;;;;;;15.43;7.13;;;7.50;99.90;;;;;;5053923;28;20049;-81
2023/04/28 07:07:21;;;;;;;13.48;6.97;;;7.50;99.90;;;;;;5053795;28;20048;-82
2023/04/28 07:09:53;;;;;;;13.25;7.00;;;8.40;99.90;;;;;;5017987;28;20084;-82
2023/04/28 07:12:22;;;;;;;14.77;7.18;;;7.30;99.90;;;;;;5034361;28;20167;-83
2023/04/28 07:15:03;;;;;;;16.92;7.57;;;7.50;99.90;;;;;;5014952;28;20433;-82
2023/04/28 07:17:29;;;;;;;13.80;6.90;;;7.60;99.90;;;;;;5016467;28;20038;-83
2023/04/28 07:19:55;;;;;;;13.75;6.70;;;7.90;99.90;;;;;;5016165;28;20048;-82
2023/04/28 07:22:26;;;;;;;14.75;7.80;;;7.50;99.90;;;;;;5033414;28;20094;-82
2023/04/28 07:25:03;;;;;;;15.27;6.78;;;8.50;99.90;;;;;;5009039;28;20037;-82
2023/04/28 07:27:28;;;;;;;14.52;6.82;;;7.90;99.90;;;;;;5009774;28;20049;-85
2023/04/28 07:29:54;;;;;;;14.13;7.28;;;6.80;99.90;;;;;;5015209;28;20099;-83
2023/04/28 07:32:29;;;;;;;15.75;7.25;;;8.70;99.90;;;;;;5034122;28;20045;-84
2023/04/28 07:35:01;;;;;;;14.43;7.38;;;8.80;99.90;;;;;;5006062;28;20563;-82
2023/04/28 07:37:27;;;;;;;12.70;6.85;;;7.90;99.90;;;;;;4996677;28;20045;-82
2023/04/28 07:39:56;;;;;;;15.88;7.10;;;8.50;99.90;;;;;;4996716;28;20128;-84
2023/04/28 07:42:22;;;;;;;14.32;7.18;;;8.00;99.90;;;;;;5013925;28;20042;-85
2023/04/28 07:44:47;;;;;;;14.77;7.28;;;9.20;99.90;;;;;;4997502;28;20049;-83
2023/04/28 07:47:13;;;;;;;14.52;7.20;;;8.50;99.90;;;;;;4996528;28;20558;-82
2023/04/28 07:49:39;;;;;;;14.05;7.35;;;7.80;99.90;;;;;;5014676;28;20180;-82
2023/04/28 07:52:10;;;;;;;15.55;7.40;;;10.00;99.90;;;;;;5016506;28;20037;-81
2023/04/28 07:54:36;;;;;;;15.20;7.07;;;9.30;99.90;;;;;;5015954;28;20053;-82
2023/04/28 07:57:09;;;;;;;12.65;6.70;;;10.20;99.90;;;;;;5014459;28;20034;-82
2023/04/28 07:59:35;;;;;;;13.05;6.63;;;10.30;99.90;;;;;;5017588;28;20034;-82
2023/04/28 08:02:06;;;;;;;14.88;7.75;;;9.20;99.90;;;;;;5015611;28;20041;-83
2023/04/28 08:04:33;;;;;;;13.75;6.80;;;10.50;99.90;;;;;;5014295;28;20041;-82
2023/04/28 08:06:59;;;;;;;14.82;7.22;;;10.80;99.90;;;;;;4995958;28;20564;-83
2023/04/28 08:09:25;;;;;;;13.07;7.22;;;9.70;99.90;;;;;;5018029;28;20048;-82
2023/04/28 08:11:51;;;;;;;13.40;6.60;;;9.90;99.90;;;;;;5006238;28;20137;-83
2023/04/28 08:14:17;;;;;;;13.60;7.13;;;10.20;99.90;;;;;;5014511;28;20095;-83
2023/04/28 08:16:42;;;;;;;13.93;7.32;;;10.40;99.90;;;;;;5013026;28;20053;-82
2023/04/28 08:19:08;;;;;;;13.57;7.00;;;10.60;99.90;;;;;;5030248;28;20057;-82
2023/04/28 08:21:34;;;;;;;14.30;7.63;;;11.00;99.90;;;;;;5001757;28;20041;-83
2023/04/28 08:24:00;;;;;;;20.75;7.68;;;10.50;99.90;;;;;;5002545;28;20053;-83
2023/04/28 08:26:26;;;;;;;13.52;6.95;;;10.60;99.90;;;;;;5009685;28;20056;-83
2023/04/28 08:28:52;;;;;;;12.13;7.00;;;10.60;99.90;;;;;;5028923;28;20053;-83
2023/04/28 08:31:17;;;;;;;15.18;7.20;;;10.60;99.90;;;;;;5014067;28;20095;-83
2023/04/28 08:33:47;;;;;;;14.38;7.28;;;10.70;99.90;;;;;;5014962;28;20042;-83
2023/04/28 08:36:13;;;;;;;15.20;6.75;;;10.70;99.90;;;;;;5014797;28;20401;-83
2023/04/28 08:38:40;;;;;;;14.35;7.50;;;10.80;99.90;;;;;;5032360;28;20045;-83
2023/04/28 08:41:06;;;;;;;14.00;7.68;;;10.80;99.90;;;;;;5032951;28;20049;-82
2023/04/28 08:43:34;;;;;;;13.85;7.10;;;11.80;99.90;;;;;;5031951;28;20424;-83
2023/04/28 08:46:05;;;;;;;14.50;7.28;;;11.20;99.90;;;;;;5031606;28;20041;-82
2023/04/28 08:48:37;;;;;;;13.20;7.45;;;11.10;99.90;;;;;;5015073;28;20045;-82
2023/04/28 08:51:05;;;;;;;13.60;7.40;;;11.70;99.90;;;;;;5023412;28;20042;-82
2023/04/28 08:53:35;;;;;;;13.23;7.53;;;11.40;99.90;;;;;;4995013;28;20449;-82
2023/04/28 08:56:03;;;;;;;13.80;7.80;;;12.50;99.90;;;;;;5012992;28;20037;-82
2023/04/28 08:58:34;;;;;;;15.63;7.82;;;12.10;99.90;;;;;;4995272;28;20061;-82
2023/04/28 09:01:03;;;;;;;15.95;7.43;;;11.40;99.90;;;;;;4995191;28;20037;-82
2023/04/28 09:03:31;;;;;;;15.98;7.88;;;11.40;99.90;;;;;;4995350;28;20141;-85
2023/04/28 09:06:17;;;;;;;12.88;7.32;;;11.40;99.90;;;;;;4994443;28;20049;-85
2023/04/28 09:09:17;;;;;;;16.10;7.78;;;11.50;99.90;;;;;;4995282;28;20057;-84
2023/04/28 09:12:00;;;;;;;14.07;7.95;;;11.60;99.90;;;;;;4994951;28;20054;-83
2023/04/28 09:14:33;;;;;;;13.10;7.57;;;12.00;99.90;;;;;;4994942;28;20050;-82
2023/04/28 09:16:59;;;;;;;;;;;12.50;99.90;;;;;;5019963;28;20057;-83
2023/04/28 09:19:36;;;;;;;14.05;8.13;;;12.40;99.90;;;;;;5023783;28;19953;-84
2023/04/28 09:22:02;;;;;;;14.65;7.88;;;11.80;99.90;;;;;;5011973;28;20049;-83
2023/04/28 09:24:35;;;;;;;15.68;7.68;;;11.80;99.90;;;;;;4998050;28;20053;-83
2023/04/28 09:27:03;;;;;;;15.10;7.95;;;11.90;99.90;;;;;;5005740;28;20590;-83
2023/04/28 09:29:30;;;;;;;14.32;7.70;;;11.80;99.90;;;;;;5025414;28;20042;-84
2023/04/28 09:32:18;;;;;;;15.15;7.90;;;11.80;99.90;;;;;;5033624;28;20045;-87
2023/04/28 09:34:56;;;;;;;15.40;7.68;;;12.00;99.90;;;;;;5010043;28;20128;-86
2023/04/28 09:37:24;;;;;;;13.75;7.55;;;12.40;99.90;;;;;;5031781;28;20077;-85
2023/04/28 09:39:51;;;;;;;15.23;7.75;;;12.80;99.90;;;;;;5017360;28;20103;-85
2023/04/28 09:42:32;;;;;;;16.73;8.10;;;12.30;99.90;;;;;;5035488;28;20037;-83
2023/04/28 09:45:06;;;;;;;15.05;7.88;;;12.50;99.90;;;;;;5018050;28;20052;-84
2023/04/28 09:47:34;;;;;;;13.93;8.23;;;12.70;99.90;;;;;;5036373;28;20103;-84
2023/04/28 09:50:05;;;;;;;14.15;8.10;;;13.70;99.90;;;;;;5017602;28;20092;-84
2023/04/28 09:52:33;;;;;;;15.05;8.20;;;13.00;99.90;;;;;;5018494;28;20064;-82
2023/04/28 09:55:01;;;;;;;15.30;7.90;;;13.10;99.90;;;;;;5012594;28;21043;-82
2023/04/28 09:57:30;;;;;;;16.67;7.90;;;13.20;99.90;;;;;;5008994;28;20041;-82
2023/04/28 09:59:57;;;;;;;12.55;7.07;;;13.20;99.90;;;;;;5010423;28;20080;-81
2023/04/28 10:02:24;;;;;;;16.00;8.45;;;13.20;99.90;;;;;;5016152;28;20494;-81
2023/04/28 10:04:53;;;;;;;14.45;7.93;;;13.10;99.90;;;;;;5002692;28;20386;-81
2023/04/28 10:07:20;;;;;;;16.48;8.07;;;13.00;99.90;;;;;;5025593;28;20037;-81
2023/04/28 10:09:50;;;;;;;14.77;8.35;;;12.90;99.90;;;;;;5026181;28;20489;-82
2023/04/28 10:12:16;;;;;;;14.25;8.48;;;12.80;99.90;;;;;;5024071;28;20103;-82
2023/04/28 10:14:43;;;;;;;13.35;7.72;;;12.80;99.90;;;;;;5017720;28;20056;-81
2023/04/28 10:17:10;;;;;;;15.48;8.55;;;12.80;99.90;;;;;;5034495;28;20523;-83
2023/04/28 10:19:36;;;;;;;14.63;7.90;;;12.90;99.90;;;;;;5030029;28;20052;-82
2023/04/28 10:22:14;;;;;;;13.48;7.68;;;14.00;99.90;;;;;;5006368;28;20100;-82
2023/04/28 10:25:11;;;;;;;14.77;8.23;;;13.80;99.90;;;;;;5007449;28;20046;-82
2023/04/28 10:27:44;;;;;;;15.13;8.60;;;14.50;99.90;;;;;;5020791;28;20073;-82
2023/04/28 10:30:24;;;;;;;13.80;7.80;;;15.70;99.90;;;;;;5020572;28;20113;-81
2023/04/28 10:33:12;;;;;;;14.40;8.50;;;15.50;99.90;;;;;;5017570;28;20055;-82
2023/04/28 10:35:39;;;;;;;12.65;7.90;;;15.70;99.90;;;;;;5013933;28;20406;-81
2023/04/28 10:38:16;;;;;;;14.98;8.13;;;15.90;99.90;;;;;;5036203;28;20570;-82
2023/04/28 10:40:44;;;;;;;14.70;8.75;;;16.00;99.90;;;;;;5054738;28;20103;-82
2023/04/28 10:43:11;;;;;;;15.88;8.02;;;16.50;99.90;;;;;;5036444;28;20073;-81
2023/04/28 10:45:55;;;;;;;14.48;7.75;;;16.30;99.90;;;;;;5036132;28;20501;-82
2023/04/28 10:48:22;;;;;;;13.35;6.72;;;16.60;99.90;;;;;;5037234;28;20091;-81
2023/04/28 10:51:03;;;;;;;14.27;7.38;;;16.60;99.90;;;;;;5035673;28;20041;-82
2023/04/28 10:53:44;;;;;;;16.00;8.38;;;16.20;99.90;;;;;;5036515;28;20121;-83
2023/04/28 10:56:17;;;;;;;14.20;8.27;;;16.00;99.90;;;;;;5038760;28;20028;-84
2023/04/28 10:58:56;;;;;;;13.07;7.97;;;15.70;99.90;;;;;;5023590;28;20076;-83
2023/04/28 11:01:28;;;;;;;15.27;8.23;;;15.40;99.90;;;;;;5028124;28;20107;-83
2023/04/28 11:04:15;;;;;;;15.25;7.72;;;15.30;99.90;;;;;;5011175;28;20033;-83
2023/04/28 11:06:42;;;;;;;13.85;8.02;;;15.40;99.90;;;;;;5008326;28;20053;-84
2023/04/28 11:09:11;;;;;;;15.25;8.35;;;15.60;99.90;;;;;;5007095;28;20037;-84
2023/04/28 11:11:38;;;;;;;13.52;8.18;;;15.50;99.90;;;;;;5025466;28;20038;-84
2023/04/28 11:14:17;;;;;;;14.30;7.97;;;15.70;99.90;;;;;;5004852;28;20049;-84
2023/04/28 11:16:52;;;;;;;16.25;8.50;;;15.90;99.90;;;;;;5023779;28;20128;-84
2023/04/28 11:19:24;;;;;;;12.93;7.32;;;15.90;99.90;;;;;;5005571;28;20105;-83
2023/04/28 11:21:52;;;;;;;14.75;7.43;;;16.10;99.90;;;;;;5025298;28;20546;-84
2023/04/28 11:24:17;;;;;;;12.82;6.93;;;16.40;99.90;;;;;;5008239;28;20389;-84
2023/04/28 11:26:44;;;;;;;12.98;6.68;;;16.60;99.90;;;;;;5006832;28;20049;-85
2023/04/28 11:29:11;;;;;;;12.88;7.60;;;16.80;99.90;;;;;;4996575;28;20045;-83
2023/04/28 11:31:37;;;;;;;13.60;7.13;;;17.20;99.90;;;;;;5010529;28;20493;-83
2023/04/28 11:34:04;;;;;;;12.68;6.97;;;16.50;99.90;;;;;;5015422;28;20053;-82
2023/04/28 11:36:32;;;;;;;13.57;6.90;;;16.40;99.90;;;;;;5034723;28;20060;-85
2023/04/28 11:38:58;;;;;;;13.52;6.75;;;17.10;99.90;;;;;;5033726;28;20057;-86
2023/04/28 11:41:25;;;;;;;12.90;7.28;;;16.10;99.90;;;;;;5027214;28;20052;-83
2023/04/28 11:43:52;;;;;;;11.25;6.65;;;16.40;99.90;;;;;;5053670;28;20045;-82
2023/04/28 11:46:19;;;;;;;12.90;7.10;;;16.40;99.90;;;;;;5045854;28;20044;-82
2023/04/28 11:48:45;;;;;;;13.35;6.97;;;16.50;99.90;;;;;;5008388;28;20072;-82
2023/04/28 11:51:31;;;;;;;12.82;7.40;;;16.60;99.90;;;;;;5033174;28;20596;-83
2023/04/28 11:53:56;;;;;;;14.85;7.95;;;16.50;99.90;;;;;;5015455;28;20132;-83
2023/04/28 11:56:22;;;;;;;12.48;7.40;;;16.40;99.90;;;;;;5015606;28;20175;-83
2023/04/28 11:59:03;;;;;;;12.70;7.72;;;16.80;99.90;;;;;;5016182;28;20130;-83
2023/04/28 12:01:29;;;;;;;13.35;7.88;;;16.10;99.90;;;;;;5014768;28;20045;-82
2023/04/28 12:03:55;;;;;;;14.35;8.43;;;16.00;99.90;;;;;;5033089;28;20049;-83
2023/04/28 12:06:21;;;;;;;13.50;8.60;;;15.80;99.90;;;;;;5015841;28;20045;-83
2023/04/28 12:08:47;;;;;;;15.23;8.88;;;15.70;99.90;;;;;;5019067;28;20045;-82
2023/04/28 12:11:14;;;;;;;13.80;8.27;;;15.50;99.90;;;;;;5053323;28;20472;-83
2023/04/28 12:13:40;;;;;;;15.13;9.80;;;15.40;99.90;;;;;;5053210;28;20051;-83
2023/04/28 12:16:07;;;;;;;14.50;8.48;;;15.40;99.90;;;;;;5034505;28;20132;-83
2023/04/28 12:18:35;;;;;;;13.68;9.00;;;15.40;99.90;;;;;;5034846;28;20148;-82
2023/04/28 12:21:01;;;;;;;13.70;8.13;;;15.20;99.90;;;;;;5052997;28;20081;-83
2023/04/28 12:23:34;;;;;;;12.85;7.95;;;15.10;99.90;;;;;;5051851;28;20444;-82
2023/04/28 12:26:01;;;;;;;13.27;8.07;;;15.40;99.90;;;;;;5038148;28;20047;-82
2023/04/28 12:28:40;;;;;;;14.02;8.07;;;15.00;99.90;;;;;;5028429;28;20559;-82
2023/04/28 12:31:07;;;;;;;14.13;9.02;;;15.00;99.90;;;;;;5002901;28;20049;-82
2023/04/28 12:33:36;;;;;;;17.17;10.48;;;15.00;99.90;;;;;;5004474;28;20046;-82
2023/04/28 12:36:03;;;;;;;15.50;9.13;;;14.90;99.90;;;;;;5007442;28;20049;-82
2023/04/28 12:38:29;;;;;;;16.75;10.07;;;14.80;99.90;;;;;;5012541;28;20426;-83
2023/04/28 12:40:55;;;;;;;14.70;9.73;;;15.10;99.90;;;;;;5015205;28;20108;-81
2023/04/28 12:43:22;;;;;;;15.05;9.90;;;14.50;99.90;;;;;;5015566;28;20453;-81
2023/04/28 12:45:52;;;;;;;17.67;10.52;;;14.40;99.90;;;;;;5032094;28;20037;-82
2023/04/28 12:48:18;;;;;;;15.52;9.68;;;14.30;99.90;;;;;;5032385;28;20494;-80